Lenox, Missouri
Current Conditions -  °F | °C
As of 4:41 AM on Monday 22 Dec 2014 (Local Time) from KTBN Reporting Station
Light Rain Light Rain  
Wind Chill: 35°   Ceiling: 900
Heat Index: 41°   Visibility: 6mi
Dew Point: 39°   Wind: 9mph
Humidity: 93%   Direction: 140°SE
Pressure: 29.7"   Gusts: NA
Location:  37.65°N, 91.76°W
Report Text: KTBN 221041Z AUTO 14008KT 6SM -RA BR OVC009 05/04 A2970 RMK AO2 RAB1011E1012B1034DZB1012E1034 $
Loading
Personal Weather Stations






























Interactive Weather Map New forecast layout! Learn more

10-Day Weather Forecast

Advertisements
Track Severe Weather on mobile